Adamsville, OH

6:20 PM EDT on October 31, 2014 (GMT -0400)
Zanesville Municipal | Change Station
CLOSE
Current Station
Airport
Location: Zanesville,
Elevation: 899 ft
Nearby Weather Stations

Elev 899 ft 39.94 °N, 81.89 °W | Updated 27 minutes ago

Overcast
Overcast
44 °F
Feels Like 42 °F
N
4
Wind Variable Wind from SSW

Today
High -- | Low -- °F
--% Chance of Precip.
Yesterday
High -- | Low -- °F
Precip. -- in
7:55 AM 6:26 PM
First Quarter, 59% visible
Pressure 29.87 in
Visibility 7.0 miles
Clouds Few 1000 ft
Mostly Cloudy 3000 ft
Overcast 4300 ft
Windchill 42 °F
Dew Point 40 °F
Humidity 85%
Rainfall 0.06 in
Snow Depth Not available.
UV 0 out of 12
Pollen .10 out of 12
Air Quality Not available.
Flu Activity Not available.
METAR KZZV 312153Z AUTO 21003KT 7SM -RA FEW010 BKN030 OVC043 07/04 A2986 RMK AO2 SLP114 P0001 T00670044

More Conditions Fewer Conditions

Pressure 29.87 in
Visibility 7.0 miles
Clouds Few 1000 ft
Mostly Cloudy 3000 ft
Overcast 4300 ft
Windchill 42 °F
Dew Point 40 °F
Humidity 85%
Rainfall 0.06 in
Snow Depth Not available.
UV 0 out of 12
Pollen .10 out of 12
Air Quality Not available.
Flu Activity Not available.
METAR KZZV 312153Z AUTO 21003KT 7SM -RA FEW010 BKN030 OVC043 07/04 A2986 RMK AO2 SLP114 P0001 T00670044

More Conditions Fewer Conditions

10-Day Weather Forecast

Almanac

Astronomy

Oct. 31, 2014 Rise Set
Actual Time
Civil Twilight
Nautical Twilight
Astronomical Twilight
Moon
Length of Visible Light
Length of Day
Tomorrow will be .
, % of the Moon is Illuminated

Today's Extremes

State Highs State Lows

Community

WunderPhotos

Upload Photos

1,766,757 photos uploaded!

WunderBlogs® & News

Nearby

Air Quality

  Air Quality AQ Index Pollutant
Not available.

Snow Depth

Station Depth Elevation

Earthquake Activity

City Distance Mag. Time & Date
Minimum magnitude displayed is 2.5.

Coastal Water Temperatures

Place Temperature

Nearby Weather Stations